sensor_id;sensor_type;location;lat;lon;timestamp;pressure;altitude;pressure_sealevel;temperature;humidity
53484;BME280;75581;50.088;19.966;2024-01-25T00:00:40;98927.80;;;7.18;63.12
53484;BME280;75581;50.088;19.966;2024-01-25T00:03:30;98930.40;;;7.20;63.16
53484;BME280;75581;50.088;19.966;2024-01-25T00:05:59;98927.83;;;7.21;62.98
53484;BME280;75581;50.088;19.966;2024-01-25T00:08:28;98924.34;;;7.24;62.80
53484;BME280;75581;50.088;19.966;2024-01-25T00:10:57;98917.20;;;7.26;62.63
53484;BME280;75581;50.088;19.966;2024-01-25T00:13:26;98924.02;;;7.29;62.34
53484;BME280;75581;50.088;19.966;2024-01-25T00:15:55;98928.08;;;7.32;61.98
53484;BME280;75581;50.088;19.966;2024-01-25T00:18:24;98934.06;;;7.33;61.88
53484;BME280;75581;50.088;19.966;2024-01-25T00:20:53;98944.75;;;7.35;61.86
53484;BME280;75581;50.088;19.966;2024-01-25T00:23:22;98941.29;;;7.36;62.10
53484;BME280;75581;50.088;19.966;2024-01-25T00:25:51;98936.77;;;7.35;62.13
53484;BME280;75581;50.088;19.966;2024-01-25T00:28:20;98940.66;;;7.34;61.99
53484;BME280;75581;50.088;19.966;2024-01-25T00:30:49;98941.42;;;7.30;61.97
53484;BME280;75581;50.088;19.966;2024-01-25T00:33:19;98947.73;;;7.29;61.98
53484;BME280;75581;50.088;19.966;2024-01-25T00:35:48;98958.64;;;7.25;62.06
53484;BME280;75581;50.088;19.966;2024-01-25T00:38:18;98952.70;;;7.22;62.18
53484;BME280;75581;50.088;19.966;2024-01-25T00:40:49;98948.64;;;7.19;62.14
53484;BME280;75581;50.088;19.966;2024-01-25T00:43:18;98949.00;;;7.18;62.20
53484;BME280;75581;50.088;19.966;2024-01-25T00:45:48;98948.05;;;7.17;62.18
53484;BME280;75581;50.088;19.966;2024-01-25T00:48:17;98952.15;;;7.13;62.25
53484;BME280;75581;50.088;19.966;2024-01-25T00:50:46;98944.47;;;7.12;62.45
53484;BME280;75581;50.088;19.966;2024-01-25T00:53:15;98944.77;;;7.11;62.71
53484;BME280;75581;50.088;19.966;2024-01-25T00:55:45;98974.23;;;7.11;62.91
53484;BME280;75581;50.088;19.966;2024-01-25T00:58:14;98971.70;;;7.11;63.34
53484;BME280;75581;50.088;19.966;2024-01-25T01:00:43;98972.78;;;7.08;63.63
53484;BME280;75581;50.088;19.966;2024-01-25T01:03:14;98974.11;;;7.07;63.93
53484;BME280;75581;50.088;19.966;2024-01-25T01:05:43;98972.11;;;7.05;64.25
53484;BME280;75581;50.088;19.966;2024-01-25T01:08:12;98962.01;;;7.01;64.43
53484;BME280;75581;50.088;19.966;2024-01-25T01:10:41;98957.84;;;6.98;64.44
53484;BME280;75581;50.088;19.966;2024-01-25T01:13:10;98955.10;;;6.95;64.52
53484;BME280;75581;50.088;19.966;2024-01-25T01:15:39;98961.36;;;6.94;64.42
53484;BME280;75581;50.088;19.966;2024-01-25T01:18:08;98955.42;;;6.95;64.43
53484;BME280;75581;50.088;19.966;2024-01-25T01:20:37;98951.71;;;6.97;64.30
53484;BME280;75581;50.088;19.966;2024-01-25T01:23:06;98957.90;;;6.99;64.28
53484;BME280;75581;50.088;19.966;2024-01-25T01:25:35;98947.92;;;7.02;64.11
53484;BME280;75581;50.088;19.966;2024-01-25T01:28:04;98934.88;;;7.05;63.73
53484;BME280;75581;50.088;19.966;2024-01-25T01:30:33;98941.27;;;7.08;63.71
53484;BME280;75581;50.088;19.966;2024-01-25T01:33:01;98941.23;;;7.08;63.30
53484;BME280;75581;50.088;19.966;2024-01-25T01:35:31;98944.80;;;7.10;63.08
53484;BME280;75581;50.088;19.966;2024-01-25T01:38:00;98938.89;;;7.12;62.89
53484;BME280;75581;50.088;19.966;2024-01-25T01:40:28;98938.60;;;7.15;62.72
53484;BME280;75581;50.088;19.966;2024-01-25T01:43:01;98933.16;;;7.18;62.59
53484;BME280;75581;50.088;19.966;2024-01-25T01:45:30;98933.68;;;7.21;62.43
53484;BME280;75581;50.088;19.966;2024-01-25T01:47:59;98934.31;;;7.24;62.33
53484;BME280;75581;50.088;19.966;2024-01-25T01:50:28;98930.75;;;7.26;62.12
53484;BME280;75581;50.088;19.966;2024-01-25T01:52:58;98936.30;;;7.28;62.06
53484;BME280;75581;50.088;19.966;2024-01-25T01:55:27;98931.03;;;7.28;62.15
53484;BME280;75581;50.088;19.966;2024-01-25T01:57:56;98930.70;;;7.27;62.19
53484;BME280;75581;50.088;19.966;2024-01-25T02:00:26;98933.14;;;7.25;62.37
53484;BME280;75581;50.088;19.966;2024-01-25T02:03:00;98929.23;;;7.22;62.19
53484;BME280;75581;50.088;19.966;2024-01-25T02:05:30;98925.42;;;7.21;62.12
53484;BME280;75581;50.088;19.966;2024-01-25T02:07:59;98921.23;;;7.21;61.98
53484;BME280;75581;50.088;19.966;2024-01-25T02:10:28;98923.92;;;7.22;61.94
53484;BME280;75581;50.088;19.966;2024-01-25T02:12:57;98923.87;;;7.22;61.71
53484;BME280;75581;50.088;19.966;2024-01-25T02:15:26;98926.94;;;7.23;61.49
53484;BME280;75581;50.088;19.966;2024-01-25T02:17:55;98931.35;;;7.23;61.39
53484;BME280;75581;50.088;19.966;2024-01-25T02:20:25;98934.48;;;7.25;61.26
53484;BME280;75581;50.088;19.966;2024-01-25T02:22:54;98939.48;;;7.26;61.20
53484;BME280;75581;50.088;19.966;2024-01-25T02:25:23;98931.91;;;7.26;61.07
53484;BME280;75581;50.088;19.966;2024-01-25T02:27:52;98932.77;;;7.25;61.09
53484;BME280;75581;50.088;19.966;2024-01-25T02:30:22;98930.20;;;7.22;61.22
53484;BME280;75581;50.088;19.966;2024-01-25T02:32:51;98933.51;;;7.20;61.38
53484;BME280;75581;50.088;19.966;2024-01-25T02:35:22;98932.09;;;7.18;61.44
53484;BME280;75581;50.088;19.966;2024-01-25T02:37:51;98932.88;;;7.16;61.49
53484;BME280;75581;50.088;19.966;2024-01-25T02:40:20;98937.62;;;7.15;61.68
53484;BME280;75581;50.088;19.966;2024-01-25T02:42:49;98938.63;;;7.13;61.78
53484;BME280;75581;50.088;19.966;2024-01-25T02:45:18;98936.98;;;7.11;61.83
53484;BME280;75581;50.088;19.966;2024-01-25T02:48:12;98933.20;;;7.09;61.87
53484;BME280;75581;50.088;19.966;2024-01-25T02:50:41;98932.27;;;7.07;61.81
53484;BME280;75581;50.088;19.966;2024-01-25T02:53:10;98929.84;;;7.05;61.76
53484;BME280;75581;50.088;19.966;2024-01-25T02:55:39;98931.37;;;7.05;61.76
53484;BME280;75581;50.088;19.966;2024-01-25T02:58:08;98921.17;;;7.04;61.62
53484;BME280;75581;50.088;19.966;2024-01-25T03:00:36;98932.52;;;7.05;61.59
53484;BME280;75581;50.088;19.966;2024-01-25T03:03:05;98931.50;;;7.06;61.49
53484;BME280;75581;50.088;19.966;2024-01-25T03:05:34;98932.41;;;7.07;61.35
53484;BME280;75581;50.088;19.966;2024-01-25T03:08:03;98935.37;;;7.08;61.29
53484;BME280;75581;50.088;19.966;2024-01-25T03:10:32;98937.95;;;7.07;61.24
53484;BME280;75581;50.088;19.966;2024-01-25T03:13:01;98938.97;;;7.07;61.19
53484;BME280;75581;50.088;19.966;2024-01-25T03:15:31;98942.28;;;7.06;61.11
53484;BME280;75581;50.088;19.966;2024-01-25T03:18:01;98941.58;;;7.06;61.09
53484;BME280;75581;50.088;19.966;2024-01-25T03:20:29;98931.98;;;7.05;61.27
53484;BME280;75581;50.088;19.966;2024-01-25T03:22:58;98934.23;;;7.04;61.10
53484;BME280;75581;50.088;19.966;2024-01-25T03:25:27;98937.23;;;7.05;61.13
53484;BME280;75581;50.088;19.966;2024-01-25T03:27:56;98939.55;;;7.06;61.04
53484;BME280;75581;50.088;19.966;2024-01-25T03:30:25;98940.36;;;7.07;60.93
53484;BME280;75581;50.088;19.966;2024-01-25T03:32:54;98946.48;;;7.06;60.71
53484;BME280;75581;50.088;19.966;2024-01-25T03:35:24;98947.17;;;7.07;60.52
53484;BME280;75581;50.088;19.966;2024-01-25T03:37:53;98968.80;;;7.07;60.52
53484;BME280;75581;50.088;19.966;2024-01-25T03:40:22;98977.44;;;7.06;60.53
53484;BME280;75581;50.088;19.966;2024-01-25T03:42:51;98994.57;;;7.04;60.77
53484;BME280;75581;50.088;19.966;2024-01-25T03:45:40;99004.31;;;6.99;61.29
53484;BME280;75581;50.088;19.966;2024-01-25T03:48:09;98995.78;;;6.92;61.77
53484;BME280;75581;50.088;19.966;2024-01-25T03:50:37;98996.06;;;6.82;62.18
53484;BME280;75581;50.088;19.966;2024-01-25T03:53:07;99003.27;;;6.73;62.66
53484;BME280;75581;50.088;19.966;2024-01-25T03:55:36;99022.08;;;6.62;63.28
53484;BME280;75581;50.088;19.966;2024-01-25T03:58:05;99025.13;;;6.50;63.69
53484;BME280;75581;50.088;19.966;2024-01-25T04:00:33;99009.81;;;6.38;64.24
53484;BME280;75581;50.088;19.966;2024-01-25T04:03:03;98998.23;;;6.26;64.66
53484;BME280;75581;50.088;19.966;2024-01-25T04:05:32;99004.79;;;6.15;64.99
53484;BME280;75581;50.088;19.966;2024-01-25T04:08:01;99002.55;;;6.07;65.36
53484;BME280;75581;50.088;19.966;2024-01-25T04:10:31;98994.48;;;6.00;65.62
53484;BME280;75581;50.088;19.966;2024-01-25T04:13:00;98989.16;;;5.94;65.70
53484;BME280;75581;50.088;19.966;2024-01-25T04:15:30;98987.23;;;5.89;65.89
53484;BME280;75581;50.088;19.966;2024-01-25T04:17:59;98990.02;;;5.86;65.99
53484;BME280;75581;50.088;19.966;2024-01-25T04:20:29;98982.96;;;5.83;66.02
53484;BME280;75581;50.088;19.966;2024-01-25T04:22:58;98985.46;;;5.81;66.14
53484;BME280;75581;50.088;19.966;2024-01-25T04:25:27;98967.02;;;5.79;65.99
53484;BME280;75581;50.088;19.966;2024-01-25T04:27:59;98962.69;;;5.79;66.01
53484;BME280;75581;50.088;19.966;2024-01-25T04:30:28;98959.45;;;5.81;65.98
53484;BME280;75581;50.088;19.966;2024-01-25T04:32:59;98955.15;;;5.83;65.81
53484;BME280;75581;50.088;19.966;2024-01-25T04:35:28;98952.58;;;5.85;65.66
53484;BME280;75581;50.088;19.966;2024-01-25T04:38:00;98953.41;;;5.86;65.63
53484;BME280;75581;50.088;19.966;2024-01-25T04:40:29;98954.45;;;5.88;65.54
53484;BME280;75581;50.088;19.966;2024-01-25T04:42:58;98963.06;;;5.91;65.17
53484;BME280;75581;50.088;19.966;2024-01-25T04:45:27;98963.52;;;5.95;64.87
53484;BME280;75581;50.088;19.966;2024-01-25T04:47:56;98965.31;;;6.01;64.41
53484;BME280;75581;50.088;19.966;2024-01-25T04:50:25;98961.42;;;6.08;63.81
53484;BME280;75581;50.088;19.966;2024-01-25T04:52:54;98959.33;;;6.16;63.57
53484;BME280;75581;50.088;19.966;2024-01-25T04:55:23;98958.23;;;6.24;63.06
53484;BME280;75581;50.088;19.966;2024-01-25T04:57:52;98953.79;;;6.31;62.69
53484;BME280;75581;50.088;19.966;2024-01-25T05:00:22;98951.61;;;6.38;62.20
53484;BME280;75581;50.088;19.966;2024-01-25T05:02:51;98953.42;;;6.44;61.93
53484;BME280;75581;50.088;19.966;2024-01-25T05:05:20;98955.69;;;6.48;61.70
53484;BME280;75581;50.088;19.966;2024-01-25T05:07:49;98954.80;;;6.54;61.25
53484;BME280;75581;50.088;19.966;2024-01-25T05:10:19;98956.27;;;6.58;60.95
53484;BME280;75581;50.088;19.966;2024-01-25T05:12:48;98950.70;;;6.62;60.87
53484;BME280;75581;50.088;19.966;2024-01-25T05:15:17;98945.86;;;6.64;60.79
53484;BME280;75581;50.088;19.966;2024-01-25T05:17:46;98950.08;;;6.67;60.56
53484;BME280;75581;50.088;19.966;2024-01-25T05:20:15;98959.71;;;6.70;60.37
53484;BME280;75581;50.088;19.966;2024-01-25T05:22:46;98953.36;;;6.71;60.43
53484;BME280;75581;50.088;19.966;2024-01-25T05:25:15;98953.91;;;6.72;60.38
53484;BME280;75581;50.088;19.966;2024-01-25T05:27:44;98963.16;;;6.73;60.25
53484;BME280;75581;50.088;19.966;2024-01-25T05:30:14;98961.30;;;6.75;60.01
53484;BME280;75581;50.088;19.966;2024-01-25T05:32:43;98967.42;;;6.76;60.09
53484;BME280;75581;50.088;19.966;2024-01-25T05:35:13;98966.56;;;6.76;59.99
53484;BME280;75581;50.088;19.966;2024-01-25T05:37:42;98970.33;;;6.75;60.21
53484;BME280;75581;50.088;19.966;2024-01-25T05:40:11;98970.46;;;6.75;60.31
53484;BME280;75581;50.088;19.966;2024-01-25T05:42:40;98965.83;;;6.72;60.54
53484;BME280;75581;50.088;19.966;2024-01-25T05:45:10;98964.38;;;6.69;60.64
53484;BME280;75581;50.088;19.966;2024-01-25T05:47:39;98962.87;;;6.65;60.68
53484;BME280;75581;50.088;19.966;2024-01-25T05:50:08;98963.94;;;6.62;60.93
53484;BME280;75581;50.088;19.966;2024-01-25T05:52:38;98959.45;;;6.60;60.95
53484;BME280;75581;50.088;19.966;2024-01-25T05:55:07;98961.48;;;6.59;60.90
53484;BME280;75581;50.088;19.966;2024-01-25T05:57:37;98964.70;;;6.59;60.99
53484;BME280;75581;50.088;19.966;2024-01-25T06:00:06;98968.20;;;6.61;60.87
53484;BME280;75581;50.088;19.966;2024-01-25T06:02:36;98963.45;;;6.61;60.91
53484;BME280;75581;50.088;19.966;2024-01-25T06:05:04;98959.11;;;6.62;60.83
53484;BME280;75581;50.088;19.966;2024-01-25T06:07:34;98966.52;;;6.61;60.87
53484;BME280;75581;50.088;19.966;2024-01-25T06:10:03;98973.52;;;6.61;60.99
53484;BME280;75581;50.088;19.966;2024-01-25T06:12:32;98971.77;;;6.61;61.14
53484;BME280;75581;50.088;19.966;2024-01-25T06:15:01;98981.91;;;6.59;61.29
53484;BME280;75581;50.088;19.966;2024-01-25T06:17:30;98964.49;;;6.56;61.44
53484;BME280;75581;50.088;19.966;2024-01-25T06:20:00;98969.81;;;6.54;61.58
53484;BME280;75581;50.088;19.966;2024-01-25T06:22:29;98975.27;;;6.54;61.81
53484;BME280;75581;50.088;19.966;2024-01-25T06:24:59;98976.61;;;6.53;61.99
53484;BME280;75581;50.088;19.966;2024-01-25T06:27:28;98983.12;;;6.51;62.17
53484;BME280;75581;50.088;19.966;2024-01-25T06:29:57;98985.91;;;6.48;62.46
53484;BME280;75581;50.088;19.966;2024-01-25T06:32:25;98978.52;;;6.45;62.63
53484;BME280;75581;50.088;19.966;2024-01-25T06:34:55;98982.15;;;6.41;62.92
53484;BME280;75581;50.088;19.966;2024-01-25T06:37:24;98992.02;;;6.39;63.13
53484;BME280;75581;50.088;19.966;2024-01-25T06:39:53;98975.00;;;6.37;63.39
53484;BME280;75581;50.088;19.966;2024-01-25T06:42:22;98970.45;;;6.36;63.45
53484;BME280;75581;50.088;19.966;2024-01-25T06:44:51;98989.91;;;6.34;63.49
53484;BME280;75581;50.088;19.966;2024-01-25T06:47:19;98992.83;;;6.33;63.93
53484;BME280;75581;50.088;19.966;2024-01-25T06:49:51;98997.84;;;6.28;64.34
53484;BME280;75581;50.088;19.966;2024-01-25T06:52:20;98998.70;;;6.22;64.72
53484;BME280;75581;50.088;19.966;2024-01-25T06:54:49;98993.59;;;6.15;65.08
53484;BME280;75581;50.088;19.966;2024-01-25T06:57:20;98989.59;;;6.07;65.68
53484;BME280;75581;50.088;19.966;2024-01-25T06:59:48;98992.77;;;6.00;66.12
53484;BME280;75581;50.088;19.966;2024-01-25T07:02:18;99000.02;;;5.93;66.36
53484;BME280;75581;50.088;19.966;2024-01-25T07:04:47;98996.77;;;5.86;66.63
53484;BME280;75581;50.088;19.966;2024-01-25T07:07:17;98996.86;;;5.80;67.00
53484;BME280;75581;50.088;19.966;2024-01-25T07:09:46;98997.42;;;5.75;67.17
53484;BME280;75581;50.088;19.966;2024-01-25T07:12:15;98995.63;;;5.71;67.36
53484;BME280;75581;50.088;19.966;2024-01-25T07:14:43;98985.05;;;5.67;67.52
53484;BME280;75581;50.088;19.966;2024-01-25T07:17:12;98982.08;;;5.64;67.76
53484;BME280;75581;50.088;19.966;2024-01-25T07:19:41;98982.77;;;5.60;67.95
53484;BME280;75581;50.088;19.966;2024-01-25T07:22:10;98984.00;;;5.58;68.04
53484;BME280;75581;50.088;19.966;2024-01-25T07:24:42;98989.43;;;5.56;68.25
53484;BME280;75581;50.088;19.966;2024-01-25T07:27:11;98987.41;;;5.56;68.32
53484;BME280;75581;50.088;19.966;2024-01-25T07:29:43;98981.35;;;5.57;68.33
53484;BME280;75581;50.088;19.966;2024-01-25T07:32:13;98980.19;;;5.57;68.49
53484;BME280;75581;50.088;19.966;2024-01-25T07:34:42;98980.67;;;5.58;68.60
53484;BME280;75581;50.088;19.966;2024-01-25T07:37:12;98982.30;;;5.59;68.54
53484;BME280;75581;50.088;19.966;2024-01-25T07:39:42;98984.05;;;5.60;68.51
53484;BME280;75581;50.088;19.966;2024-01-25T07:42:11;98988.50;;;5.60;68.57
53484;BME280;75581;50.088;19.966;2024-01-25T07:44:40;98990.20;;;5.61;68.60
53484;BME280;75581;50.088;19.966;2024-01-25T07:47:09;99008.02;;;5.62;68.67
53484;BME280;75581;50.088;19.966;2024-01-25T07:49:40;99010.23;;;5.63;68.75
53484;BME280;75581;50.088;19.966;2024-01-25T07:52:09;99025.10;;;5.62;68.87
53484;BME280;75581;50.088;19.966;2024-01-25T07:54:39;99027.71;;;5.62;69.02
53484;BME280;75581;50.088;19.966;2024-01-25T07:57:09;99035.82;;;5.60;69.28
53484;BME280;75581;50.088;19.966;2024-01-25T07:59:38;99040.48;;;5.59;69.49
53484;BME280;75581;50.088;19.966;2024-01-25T08:02:07;99045.14;;;5.58;69.71
53484;BME280;75581;50.088;19.966;2024-01-25T08:04:36;99043.54;;;5.56;69.94
53484;BME280;75581;50.088;19.966;2024-01-25T08:07:05;99043.67;;;5.53;70.13
53484;BME280;75581;50.088;19.966;2024-01-25T08:09:34;99043.69;;;5.50;70.35
53484;BME280;75581;50.088;19.966;2024-01-25T08:12:03;99039.80;;;5.49;70.64
53484;BME280;75581;50.088;19.966;2024-01-25T08:14:32;99040.51;;;5.46;70.73
53484;BME280;75581;50.088;19.966;2024-01-25T08:17:01;99041.58;;;5.47;70.84
53484;BME280;75581;50.088;19.966;2024-01-25T08:19:30;99038.69;;;5.47;70.84
53484;BME280;75581;50.088;19.966;2024-01-25T08:22:00;99037.19;;;5.47;70.99
53484;BME280;75581;50.088;19.966;2024-01-25T08:24:29;99034.66;;;5.46;71.08
53484;BME280;75581;50.088;19.966;2024-01-25T08:26:58;99031.04;;;5.47;71.07
53484;BME280;75581;50.088;19.966;2024-01-25T08:29:27;99029.48;;;5.46;71.20
53484;BME280;75581;50.088;19.966;2024-01-25T08:31:55;99032.62;;;5.46;71.30
53484;BME280;75581;50.088;19.966;2024-01-25T08:34:24;99027.28;;;5.47;71.34
53484;BME280;75581;50.088;19.966;2024-01-25T08:36:54;99025.86;;;5.48;71.44
53484;BME280;75581;50.088;19.966;2024-01-25T08:39:22;99026.64;;;5.49;71.31
53484;BME280;75581;50.088;19.966;2024-01-25T08:41:51;99027.14;;;5.50;71.37
53484;BME280;75581;50.088;19.966;2024-01-25T08:44:20;99038.04;;;5.51;71.33
53484;BME280;75581;50.088;19.966;2024-01-25T08:46:49;99027.14;;;5.52;71.42
53484;BME280;75581;50.088;19.966;2024-01-25T08:49:18;99029.83;;;5.53;71.47
53484;BME280;75581;50.088;19.966;2024-01-25T08:51:47;99026.90;;;5.54;71.42
53484;BME280;75581;50.088;19.966;2024-01-25T08:54:16;99029.30;;;5.56;71.48
53484;BME280;75581;50.088;19.966;2024-01-25T08:56:45;99028.59;;;5.58;71.46
53484;BME280;75581;50.088;19.966;2024-01-25T08:59:14;99026.63;;;5.59;71.47
53484;BME280;75581;50.088;19.966;2024-01-25T09:01:42;99030.09;;;5.61;71.54
53484;BME280;75581;50.088;19.966;2024-01-25T09:04:11;99028.22;;;5.65;71.60
53484;BME280;75581;50.088;19.966;2024-01-25T09:06:40;99023.67;;;5.69;71.66
53484;BME280;75581;50.088;19.966;2024-01-25T09:09:09;99024.95;;;5.74;71.67
53484;BME280;75581;50.088;19.966;2024-01-25T09:11:39;99027.85;;;5.77;71.69
53484;BME280;75581;50.088;19.966;2024-01-25T09:14:09;99027.52;;;5.79;71.61
53484;BME280;75581;50.088;19.966;2024-01-25T09:16:38;99027.69;;;5.81;71.63
53484;BME280;75581;50.088;19.966;2024-01-25T09:19:07;99027.21;;;5.85;71.45
53484;BME280;75581;50.088;19.966;2024-01-25T09:21:41;99031.07;;;5.87;71.21
53484;BME280;75581;50.088;19.966;2024-01-25T09:24:12;99030.09;;;5.90;71.04
53484;BME280;75581;50.088;19.966;2024-01-25T09:26:41;99024.30;;;5.92;70.84
53484;BME280;75581;50.088;19.966;2024-01-25T09:29:10;99032.38;;;5.94;70.64
53484;BME280;75581;50.088;19.966;2024-01-25T09:31:40;99025.50;;;5.97;70.51
53484;BME280;75581;50.088;19.966;2024-01-25T09:34:08;99024.93;;;6.01;70.50
53484;BME280;75581;50.088;19.966;2024-01-25T09:36:38;99024.52;;;6.05;70.33
53484;BME280;75581;50.088;19.966;2024-01-25T09:39:07;99027.75;;;6.05;70.07
53484;BME280;75581;50.088;19.966;2024-01-25T09:41:36;99030.84;;;6.06;69.93
53484;BME280;75581;50.088;19.966;2024-01-25T09:44:08;99030.75;;;6.08;69.77
53484;BME280;75581;50.088;19.966;2024-01-25T09:46:38;99032.18;;;6.10;69.76
53484;BME280;75581;50.088;19.966;2024-01-25T09:49:10;99036.73;;;6.13;69.52
53484;BME280;75581;50.088;19.966;2024-01-25T09:51:41;99032.43;;;6.18;69.44
53484;BME280;75581;50.088;19.966;2024-01-25T09:54:10;99024.52;;;6.22;69.23
53484;BME280;75581;50.088;19.966;2024-01-25T09:56:41;99026.84;;;6.25;68.96
53484;BME280;75581;50.088;19.966;2024-01-25T09:59:10;99020.16;;;6.29;68.79
53484;BME280;75581;50.088;19.966;2024-01-25T10:01:40;99033.05;;;6.34;68.78
53484;BME280;75581;50.088;19.966;2024-01-25T10:04:09;99036.80;;;6.38;68.74
53484;BME280;75581;50.088;19.966;2024-01-25T10:06:38;99034.84;;;6.41;68.59
53484;BME280;75581;50.088;19.966;2024-01-25T10:09:08;99039.53;;;6.45;68.44
53484;BME280;75581;50.088;19.966;2024-01-25T10:11:38;99039.95;;;6.51;68.36
53484;BME280;75581;50.088;19.966;2024-01-25T10:14:14;99035.29;;;6.55;68.20
53484;BME280;75581;50.088;19.966;2024-01-25T10:16:45;99033.08;;;6.57;67.97
53484;BME280;75581;50.088;19.966;2024-01-25T10:19:14;99032.95;;;6.56;67.53
53484;BME280;75581;50.088;19.966;2024-01-25T10:21:44;99042.75;;;6.55;67.74
53484;BME280;75581;50.088;19.966;2024-01-25T10:24:15;99038.35;;;6.56;67.83
53484;BME280;75581;50.088;19.966;2024-01-25T10:26:44;99032.72;;;6.57;67.72
53484;BME280;75581;50.088;19.966;2024-01-25T10:29:14;99035.53;;;6.60;67.60
53484;BME280;75581;50.088;19.966;2024-01-25T10:31:44;99040.14;;;6.62;67.45
53484;BME280;75581;50.088;19.966;2024-01-25T10:34:14;99032.78;;;6.64;67.17
53484;BME280;75581;50.088;19.966;2024-01-25T10:36:44;99029.97;;;6.63;66.96
53484;BME280;75581;50.088;19.966;2024-01-25T10:39:14;99024.39;;;6.63;66.93
53484;BME280;75581;50.088;19.966;2024-01-25T10:41:45;99024.89;;;6.62;66.81
53484;BME280;75581;50.088;19.966;2024-01-25T10:44:20;99024.08;;;6.63;66.69
53484;BME280;75581;50.088;19.966;2024-01-25T10:46:49;99024.00;;;6.69;66.69
53484;BME280;75581;50.088;19.966;2024-01-25T10:49:18;99039.60;;;6.75;66.37
53484;BME280;75581;50.088;19.966;2024-01-25T10:51:48;99026.94;;;6.78;66.03
53484;BME280;75581;50.088;19.966;2024-01-25T10:54:18;99031.80;;;6.80;65.81
53484;BME280;75581;50.088;19.966;2024-01-25T10:56:48;99037.75;;;6.81;65.38
53484;BME280;75581;50.088;19.966;2024-01-25T10:59:16;99036.22;;;6.81;65.20
53484;BME280;75581;50.088;19.966;2024-01-25T11:01:47;99033.23;;;6.82;64.61
53484;BME280;75581;50.088;19.966;2024-01-25T11:04:19;99041.48;;;6.82;64.60
53484;BME280;75581;50.088;19.966;2024-01-25T11:06:48;99042.14;;;6.79;64.69
53484;BME280;75581;50.088;19.966;2024-01-25T11:09:19;99037.51;;;6.75;64.90
53484;BME280;75581;50.088;19.966;2024-01-25T11:11:49;99034.38;;;6.72;65.20
53484;BME280;75581;50.088;19.966;2024-01-25T11:14:25;99042.50;;;6.72;65.28
53484;BME280;75581;50.088;19.966;2024-01-25T11:16:54;99027.77;;;6.74;65.39
53484;BME280;75581;50.088;19.966;2024-01-25T11:19:23;99042.55;;;6.76;65.41
53484;BME280;75581;50.088;19.966;2024-01-25T11:21:52;99027.06;;;6.76;65.27
53484;BME280;75581;50.088;19.966;2024-01-25T11:24:23;99029.36;;;6.75;65.14
53484;BME280;75581;50.088;19.966;2024-01-25T11:26:55;99028.02;;;6.75;65.30
53484;BME280;75581;50.088;19.966;2024-01-25T11:29:24;99035.67;;;6.77;65.18
53484;BME280;75581;50.088;19.966;2024-01-25T11:31:54;99028.73;;;6.87;65.02
53484;BME280;75581;50.088;19.966;2024-01-25T11:34:23;99032.04;;;6.92;64.43
53484;BME280;75581;50.088;19.966;2024-01-25T11:36:54;99035.27;;;6.97;64.21
53484;BME280;75581;50.088;19.966;2024-01-25T11:39:23;99035.68;;;7.02;63.86
53484;BME280;75581;50.088;19.966;2024-01-25T11:41:52;99044.39;;;7.06;63.57
53484;BME280;75581;50.088;19.966;2024-01-25T11:44:21;99051.02;;;7.12;63.59
53484;BME280;75581;50.088;19.966;2024-01-25T11:46:56;99054.66;;;7.19;63.09
53484;BME280;75581;50.088;19.966;2024-01-25T11:49:25;99056.30;;;7.20;63.08
53484;BME280;75581;50.088;19.966;2024-01-25T11:51:54;99060.75;;;7.20;63.18
53484;BME280;75581;50.088;19.966;2024-01-25T11:54:23;99059.58;;;7.22;63.09
53484;BME280;75581;50.088;19.966;2024-01-25T11:56:52;99063.98;;;7.22;63.20
53484;BME280;75581;50.088;19.966;2024-01-25T11:59:22;99067.23;;;7.23;63.11
53484;BME280;75581;50.088;19.966;2024-01-25T12:01:51;99069.44;;;7.20;62.88
53484;BME280;75581;50.088;19.966;2024-01-25T12:04:20;99066.77;;;7.18;63.07
53484;BME280;75581;50.088;19.966;2024-01-25T12:06:51;99081.58;;;7.17;63.07
53484;BME280;75581;50.088;19.966;2024-01-25T12:09:20;99078.09;;;7.17;63.36
53484;BME280;75581;50.088;19.966;2024-01-25T12:11:49;99074.89;;;7.15;63.21
53484;BME280;75581;50.088;19.966;2024-01-25T12:14:20;99081.34;;;7.13;63.42
53484;BME280;75581;50.088;19.966;2024-01-25T12:16:49;99077.80;;;7.12;63.51
53484;BME280;75581;50.088;19.966;2024-01-25T12:19:20;99088.71;;;7.14;63.80
53484;BME280;75581;50.088;19.966;2024-01-25T12:21:49;99092.11;;;7.17;63.85
53484;BME280;75581;50.088;19.966;2024-01-25T12:24:19;99098.36;;;7.20;63.69
53484;BME280;75581;50.088;19.966;2024-01-25T12:26:48;99096.54;;;7.20;63.59
53484;BME280;75581;50.088;19.966;2024-01-25T12:29:17;99103.03;;;7.20;63.70
53484;BME280;75581;50.088;19.966;2024-01-25T12:31:46;99106.83;;;7.22;63.84
53484;BME280;75581;50.088;19.966;2024-01-25T12:34:15;99105.94;;;7.24;63.78
53484;BME280;75581;50.088;19.966;2024-01-25T12:36:45;99105.14;;;7.24;63.81
53484;BME280;75581;50.088;19.966;2024-01-25T12:39:14;99098.36;;;7.23;63.72
53484;BME280;75581;50.088;19.966;2024-01-25T12:41:48;99093.86;;;7.21;63.73
53484;BME280;75581;50.088;19.966;2024-01-25T12:44:19;99094.27;;;7.18;63.81
53484;BME280;75581;50.088;19.966;2024-01-25T12:46:48;99096.41;;;7.18;63.90
53484;BME280;75581;50.088;19.966;2024-01-25T12:49:17;99098.72;;;7.18;63.74
53484;BME280;75581;50.088;19.966;2024-01-25T12:51:50;99099.71;;;7.17;63.84
53484;BME280;75581;50.088;19.966;2024-01-25T12:54:21;99108.73;;;7.14;63.70
53484;BME280;75581;50.088;19.966;2024-01-25T12:56:50;99111.93;;;7.12;63.62
53484;BME280;75581;50.088;19.966;2024-01-25T12:59:20;99114.05;;;7.08;63.41
53484;BME280;75581;50.088;19.966;2024-01-25T13:01:50;99115.32;;;7.03;63.31
53484;BME280;75581;50.088;19.966;2024-01-25T13:04:19;99111.86;;;6.99;63.44
53484;BME280;75581;50.088;19.966;2024-01-25T13:06:52;99117.76;;;6.95;63.41
53484;BME280;75581;50.088;19.966;2024-01-25T13:09:23;99116.39;;;6.94;63.37
53484;BME280;75581;50.088;19.966;2024-01-25T13:11:52;99124.33;;;6.93;63.27